Time;durP1;ratioP1;P1;durP2;ratioP2;P2;SDS_P1;SDS_P2;PMS_P1;PMS_P2;Temp;Humidity;BMP_temperature;BMP_pressure;BME280_temperature;BME280_humidity;BME280_pressure;Samples;Min_cycle;Max_cycle;Signal;HPM_P1;HPM_P2
2023/12/21 00:02:09;;;;;;;8.52;2.65;;;;;;;10.84;100.00;100979.66;5210413;28;20017;-75
2023/12/21 00:04:40;;;;;;;12.13;3.25;;;;;;;10.92;100.00;100976.16;5211064;28;20025;-75
2023/12/21 00:07:10;;;;;;;7.35;2.83;;;;;;;11.10;100.00;100969.63;5209299;28;20075;-75
2023/12/21 00:09:41;;;;;;;11.65;3.15;;;;;;;11.11;100.00;100959.72;5210507;28;20029;-75
2023/12/21 00:12:11;;;;;;;13.10;3.08;;;;;;;11.06;100.00;100946.81;5209921;28;20511;-75
2023/12/21 00:14:42;;;;;;;10.75;2.60;;;;;;;10.84;100.00;100934.03;5209536;28;20033;-75
2023/12/21 00:17:12;;;;;;;8.38;2.03;;;;;;;10.85;100.00;100930.34;5208775;28;20028;-75
2023/12/21 00:19:43;;;;;;;14.10;3.00;;;;;;;10.98;100.00;100922.63;5223374;28;20017;-75
2023/12/21 00:22:13;;;;;;;10.52;2.92;;;;;;;11.05;100.00;100928.19;5211588;28;20017;-75
2023/12/21 00:24:44;;;;;;;5.03;2.03;;;;;;;10.85;100.00;100914.25;5207557;28;20021;-75
2023/12/21 00:27:14;;;;;;;15.25;2.80;;;;;;;10.81;100.00;100910.22;5210874;28;20028;-75
2023/12/21 00:29:45;;;;;;;13.05;2.17;;;;;;;10.80;100.00;100903.19;5206363;28;20124;-75
2023/12/21 00:32:15;;;;;;;5.85;2.05;;;;;;;10.80;100.00;100909.38;5212178;28;20031;-75
2023/12/21 00:34:49;;;;;;;13.40;2.50;;;;;;;10.91;100.00;100907.38;5209730;28;20477;-75
2023/12/21 00:37:21;;;;;;;8.02;2.38;;;;;;;10.85;100.00;100901.66;5207101;28;20106;-75
2023/12/21 00:39:51;;;;;;;13.27;2.10;;;;;;;10.92;100.00;100898.31;5207822;28;20025;-75
2023/12/21 00:42:24;;;;;;;8.13;2.20;;;;;;;10.82;100.00;100887.72;5207774;28;20399;-75
2023/12/21 00:44:55;;;;;;;10.18;2.17;;;;;;;11.02;100.00;100881.03;5209362;28;20033;-75
2023/12/21 00:47:25;;;;;;;7.15;2.00;;;;;;;10.93;100.00;100873.97;5209614;28;20020;-75
2023/12/21 00:49:56;;;;;;;11.40;2.35;;;;;;;10.94;100.00;100872.13;5209197;28;20036;-75
2023/12/21 00:52:26;;;;;;;8.23;2.40;;;;;;;10.95;100.00;100863.94;5208481;28;20564;-74
2023/12/21 00:54:57;;;;;;;14.18;2.88;;;;;;;10.94;100.00;100853.34;5208841;28;20032;-75
2023/12/21 00:57:28;;;;;;;11.65;1.95;;;;;;;11.13;100.00;100850.31;5203552;28;20045;-74
2023/12/21 00:59:58;;;;;;;11.65;2.70;;;;;;;10.97;100.00;100853.84;5209965;28;20025;-75
2023/12/21 01:02:29;;;;;;;15.23;3.03;;;;;;;10.95;100.00;100845.13;5207336;28;20472;-75
2023/12/21 01:04:59;;;;;;;16.40;2.35;;;;;;;10.93;100.00;100839.09;5226341;28;20035;-75
2023/12/21 01:07:29;;;;;;;14.73;2.10;;;;;;;11.02;100.00;100856.03;5207340;28;20029;-75
2023/12/21 01:10:00;;;;;;;15.98;2.67;;;;;;;11.06;100.00;100850.16;5209275;28;20044;-75
2023/12/21 01:12:32;;;;;;;23.25;4.15;;;;;;;10.99;100.00;100845.63;5207492;28;20030;-75
2023/12/21 01:15:03;;;;;;;12.75;2.40;;;;;;;11.03;100.00;100838.91;5209965;28;20419;-75
2023/12/21 01:17:34;;;;;;;13.82;2.67;;;;;;;11.14;100.00;100812.56;5207301;28;20033;-75
2023/12/21 01:20:05;;;;;;;10.65;2.72;;;;;;;11.06;100.00;100804.50;5209793;28;20075;-75
2023/12/21 01:22:35;;;;;;;13.35;2.83;;;;;;;11.20;100.00;100796.78;5207472;28;20460;-75
2023/12/21 01:25:06;;;;;;;11.68;2.50;;;;;;;11.14;100.00;100795.59;5207151;28;20033;-75
2023/12/21 01:27:36;;;;;;;15.23;2.33;;;;;;;11.17;100.00;100806.00;5208126;28;20485;-75
2023/12/21 01:30:08;;;;;;;17.75;3.20;;;;;;;11.26;100.00;100826.47;5204233;28;20472;-75
2023/12/21 01:32:38;;;;;;;11.77;3.33;;;;;;;11.29;100.00;100820.72;5207001;28;20025;-75
2023/12/21 01:35:09;;;;;;;15.38;2.20;;;;;;;11.26;100.00;100806.84;5212179;28;20679;-75
2023/12/21 01:37:39;;;;;;;15.55;2.63;;;;;;;11.30;100.00;100800.13;5206071;28;20037;-74
2023/12/21 01:40:10;;;;;;;17.88;3.28;;;;;;;11.32;100.00;100772.06;5207396;28;20021;-75
2023/12/21 01:42:41;;;;;;;17.85;3.13;;;;;;;11.25;100.00;100765.72;5209095;28;20568;-75
2023/12/21 01:45:12;;;;;;;10.48;2.70;;;;;;;11.04;100.00;100758.19;5207166;28;20361;-75
2023/12/21 01:47:43;;;;;;;17.77;3.75;;;;;;;11.00;100.00;100770.31;5206882;28;20040;-75
2023/12/21 01:50:14;;;;;;;15.77;3.53;;;;;;;10.93;100.00;100766.63;5211054;28;20021;-75
2023/12/21 01:52:45;;;;;;;15.02;3.70;;;;;;;11.00;100.00;100770.31;5212645;28;20491;-75
2023/12/21 01:55:16;;;;;;;13.90;3.08;;;;;;;11.00;100.00;100780.22;5213868;28;20072;-74
2023/12/21 01:57:47;;;;;;;22.95;3.70;;;;;;;10.99;100.00;100767.78;5211564;28;20053;-75
2023/12/21 02:00:18;;;;;;;15.68;3.60;;;;;;;10.92;100.00;100767.63;5214219;28;20040;-75
2023/12/21 02:02:50;;;;;;;23.00;3.72;;;;;;;10.97;100.00;100759.91;5213232;28;20030;-75
2023/12/21 02:05:20;;;;;;;21.65;3.83;;;;;;;10.94;100.00;100770.97;5213289;28;20104;-75
2023/12/21 02:07:51;;;;;;;17.52;3.40;;;;;;;10.96;100.00;100773.50;5213576;28;20508;-75
2023/12/21 02:10:21;;;;;;;18.63;3.08;;;;;;;11.04;100.00;100763.56;5210578;28;20037;-75
2023/12/21 02:12:52;;;;;;;23.73;3.50;;;;;;;11.00;100.00;100769.47;5213409;28;20103;-75
2023/12/21 02:15:23;;;;;;;17.98;3.80;;;;;;;10.98;100.00;100766.94;5209491;28;20051;-75
2023/12/21 02:17:55;;;;;;;21.70;4.55;;;;;;;11.07;100.00;100765.91;5213010;28;20033;-75
2023/12/21 02:20:26;;;;;;;18.60;3.45;;;;;;;11.02;100.00;100749.50;5226939;28;20108;-75
2023/12/21 02:22:59;;;;;;;14.27;3.35;;;;;;;11.02;100.00;100741.44;5212576;28;20475;-75
2023/12/21 02:25:31;;;;;;;22.13;4.32;;;;;;;11.25;100.00;100738.03;5210965;28;20056;-74
2023/12/21 02:28:02;;;;;;;14.95;3.85;;;;;;;11.27;100.00;100747.56;5213980;28;20448;-75
2023/12/21 02:30:32;;;;;;;15.48;3.17;;;;;;;11.17;100.00;100749.63;5211162;28;20047;-75
2023/12/21 02:33:03;;;;;;;18.52;3.75;;;;;;;11.10;100.00;100741.44;5213625;28;20033;-75
2023/12/21 02:35:33;;;;;;;22.50;4.57;;;;;;;11.08;100.00;100746.09;5209868;28;20030;-75
2023/12/21 02:38:04;;;;;;;15.13;3.60;;;;;;;11.02;100.00;100743.28;5211119;28;20035;-75
2023/12/21 02:40:34;;;;;;;20.55;4.35;;;;;;;11.07;100.00;100725.66;5206100;28;20056;-75
2023/12/21 02:43:04;;;;;;;22.23;3.72;;;;;;;11.00;100.00;100732.72;5215002;28;20031;-75
2023/12/21 02:45:35;;;;;;;19.33;4.07;;;;;;;11.06;100.00;100713.25;5209022;28;20111;-75
2023/12/21 02:48:06;;;;;;;25.50;4.15;;;;;;;11.06;100.00;100698.97;5209023;28;20029;-75
2023/12/21 02:50:37;;;;;;;22.15;4.07;;;;;;;11.02;100.00;100708.38;5207739;28;20017;-75
2023/12/21 02:53:07;;;;;;;24.75;4.43;;;;;;;11.05;100.00;100703.53;5213328;28;20082;-75
2023/12/21 02:55:42;;;;;;;26.37;4.87;;;;;;;11.15;100.00;100701.47;5212377;28;20048;-75
2023/12/21 02:58:12;;;;;;;23.58;3.95;;;;;;;11.19;100.00;100698.41;5210534;28;20271;-75
2023/12/21 03:00:43;;;;;;;18.73;3.47;;;;;;;11.13;100.00;100691.91;5210625;28;20473;-75
2023/12/21 03:03:14;;;;;;;17.27;2.85;;;;;;;11.21;100.00;100674.94;5212327;28;20064;-75
2023/12/21 03:05:46;;;;;;;14.48;3.40;;;;;;;11.28;100.00;100675.91;5210712;28;20017;-75
2023/12/21 03:08:16;;;;;;;19.95;4.05;;;;;;;11.34;100.00;100659.06;5213467;28;20079;-75
2023/12/21 03:10:47;;;;;;;17.35;2.92;;;;;;;11.33;100.00;100665.47;5208935;28;20532;-75
2023/12/21 03:13:17;;;;;;;16.52;3.85;;;;;;;11.27;100.00;100663.50;5212455;28;20041;-75
2023/12/21 03:15:49;;;;;;;15.95;3.70;;;;;;;11.25;100.00;100649.41;5208383;28;20029;-75
2023/12/21 03:18:20;;;;;;;21.27;3.88;;;;;;;11.36;100.00;100651.69;5211844;28;20033;-75
2023/12/21 03:20:51;;;;;;;20.85;3.42;;;;;;;11.38;100.00;100649.66;5211914;28;20079;-75
2023/12/21 03:23:21;;;;;;;18.92;3.65;;;;;;;11.37;100.00;100650.69;5225265;28;20453;-75
2023/12/21 03:25:52;;;;;;;17.83;4.43;;;;;;;11.37;100.00;100646.13;5212750;28;20403;-75
2023/12/21 03:28:23;;;;;;;21.52;3.90;;;;;;;11.42;100.00;100621.44;5211257;28;20029;-75
2023/12/21 03:30:53;;;;;;;16.60;3.90;;;;;;;11.45;100.00;100607.66;5208379;28;20049;-74
2023/12/21 03:33:24;;;;;;;18.40;2.95;;;;;;;11.42;100.00;100599.94;5207578;28;20030;-75
2023/12/21 03:35:54;;;;;;;28.90;4.40;;;;;;;11.40;100.00;100594.75;5209720;28;20022;-75
2023/12/21 03:38:25;;;;;;;20.67;3.15;;;;;;;11.54;100.00;100585.06;5210999;28;20025;-75
2023/12/21 03:40:55;;;;;;;15.15;3.30;;;;;;;11.59;100.00;100588.06;5207442;28;20438;-75
2023/12/21 03:43:26;;;;;;;24.67;3.70;;;;;;;11.56;100.00;100585.75;5208200;28;20025;-75
2023/12/21 03:45:56;;;;;;;16.42;3.35;;;;;;;11.56;100.00;100580.38;5209721;28;20025;-75
2023/12/21 03:48:27;;;;;;;20.55;3.45;;;;;;;11.56;100.00;100580.38;5209897;28;20025;-75
2023/12/21 03:50:57;;;;;;;18.63;3.72;;;;;;;11.57;100.00;100579.34;5202479;28;20030;-75
2023/12/21 03:53:28;;;;;;;17.60;3.63;;;;;;;11.60;100.00;100562.88;5212321;28;20033;-75
2023/12/21 03:55:58;;;;;;;22.20;4.05;;;;;;;11.66;100.00;100564.84;5212655;28;20078;-75
2023/12/21 03:58:29;;;;;;;19.20;3.47;;;;;;;11.68;100.00;100557.44;5207039;28;20031;-75
2023/12/21 04:00:59;;;;;;;21.67;3.60;;;;;;;11.66;100.00;100566.72;5212611;28;20518;-75
2023/12/21 04:03:30;;;;;;;20.50;3.70;;;;;;;11.72;100.00;100563.28;5209742;28;20025;-75
2023/12/21 04:06:00;;;;;;;20.25;3.33;;;;;;;11.72;100.00;100559.78;5224165;28;20047;-74
2023/12/21 04:08:31;;;;;;;26.42;3.90;;;;;;;11.70;100.00;100559.09;5210820;28;20047;-75
2023/12/21 04:11:01;;;;;;;23.48;3.45;;;;;;;11.74;100.00;100552.34;5210903;28;20192;-75
2023/12/21 04:13:32;;;;;;;24.85;3.60;;;;;;;11.75;100.00;100543.31;5211343;28;20026;-75
2023/12/21 04:16:03;;;;;;;22.98;4.80;;;;;;;11.69;100.00;100539.47;5209034;28;20020;-75
2023/12/21 04:18:33;;;;;;;27.83;3.85;;;;;;;11.61;100.00;100531.47;5206677;28;20055;-75
2023/12/21 04:21:07;;;;;;;26.80;4.18;;;;;;;11.59;100.00;100528.94;5204120;28;20021;-75
2023/12/21 04:23:37;;;;;;;27.83;4.90;;;;;;;11.54;100.00;100530.50;5206858;28;20468;-75
2023/12/21 04:26:08;;;;;;;23.30;3.70;;;;;;;11.56;100.00;100505.16;5224749;28;20032;-75
2023/12/21 04:28:38;;;;;;;22.77;4.30;;;;;;;11.46;100.00;100501.88;5205512;28;20030;-75
2023/12/21 04:31:09;;;;;;;24.73;5.53;;;;;;;11.52;100.00;100511.91;5208328;28;20024;-75
2023/12/21 04:33:39;;;;;;;20.30;3.90;;;;;;;11.49;100.00;100501.50;5205473;28;20025;-75
2023/12/21 04:36:10;;;;;;;21.88;4.53;;;;;;;11.45;100.00;100492.16;5204115;28;20029;-75
2023/12/21 04:38:40;;;;;;;25.13;4.03;;;;;;;11.39;100.00;100501.75;5205454;28;20025;-75
2023/12/21 04:41:11;;;;;;;27.70;4.65;;;;;;;11.39;100.00;100501.75;5200736;28;20033;-75
2023/12/21 04:43:42;;;;;;;28.63;6.82;;;;;;;11.33;100.00;100507.00;5208448;28;20040;-75
2023/12/21 04:46:12;;;;;;;100.75;44.00;;;;;;;11.32;100.00;100508.03;5205336;28;20104;-75
2023/12/21 04:48:42;;;;;;;33.45;11.02;;;;;;;11.37;100.00;100481.47;5206729;28;20029;-75
2023/12/21 04:51:15;;;;;;;53.58;27.23;;;;;;;11.37;100.00;100485.00;5208948;28;20468;-75
2023/12/21 04:53:46;;;;;;;18.58;6.18;;;;;;;11.48;100.00;100483.72;5204350;28;20025;-75
2023/12/21 04:56:16;;;;;;;13.63;3.92;;;;;;;11.49;100.00;100457.69;5204862;28;20033;-75
2023/12/21 04:58:47;;;;;;;15.90;4.03;;;;;;;11.53;100.00;100443.72;5203681;28;20033;-75
2023/12/21 05:01:18;;;;;;;22.88;4.63;;;;;;;11.61;100.00;100445.50;5206723;28;20411;-75
2023/12/21 05:03:48;;;;;;;17.98;3.78;;;;;;;11.56;100.00;100454.13;5200858;28;20100;-75
2023/12/21 05:06:19;;;;;;;24.60;4.30;;;;;;;11.58;100.00;100451.22;5206849;28;20487;-75
2023/12/21 05:08:50;;;;;;;21.58;3.75;;;;;;;11.55;100.00;100441.69;5201182;28;20044;-74
2023/12/21 05:11:20;;;;;;;22.02;4.78;;;;;;;11.63;100.00;100438.91;5203588;28;20025;-75
2023/12/21 05:13:51;;;;;;;19.05;4.18;;;;;;;11.59;100.00;100440.28;5206469;28;20076;-76
2023/12/21 05:16:21;;;;;;;13.20;5.47;;;;;;;11.60;100.00;100430.41;5201305;28;20400;-73
2023/12/21 05:18:52;;;;;;;26.70;11.32;;;;;;;11.56;100.00;100435.31;5205900;28;20029;-74
2023/12/21 05:21:22;;;;;;;23.77;6.95;;;;;;;11.59;100.00;100418.81;5202951;28;20017;-74
2023/12/21 05:23:53;;;;;;;20.02;5.85;;;;;;;11.70;100.00;100438.19;5201336;28;20018;-74
2023/12/21 05:26:23;;;;;;;18.75;5.47;;;;;;;11.71;100.00;100408.47;5204071;28;20412;-74
2023/12/21 05:28:57;;;;;;;18.15;6.57;;;;;;;11.66;100.00;100406.31;5203809;28;20037;-74
2023/12/21 05:31:28;;;;;;;14.40;4.10;;;;;;;11.73;100.00;100408.25;5207925;28;20151;-74
2023/12/21 05:33:58;;;;;;;16.45;4.38;;;;;;;11.68;100.00;100408.81;5202177;28;21394;-74
2023/12/21 05:36:29;;;;;;;18.38;4.70;;;;;;;11.78;100.00;100422.81;5201140;28;20017;-75
2023/12/21 05:39:01;;;;;;;21.75;4.28;;;;;;;11.76;100.00;100426.72;5206027;28;20243;-74
2023/12/21 05:41:31;;;;;;;22.17;4.00;;;;;;;11.79;100.00;100415.59;5202557;28;20021;-74
2023/12/21 05:44:03;;;;;;;19.88;4.57;;;;;;;11.74;100.00;100402.69;5202348;28;20381;-76
2023/12/21 05:46:33;;;;;;;23.77;3.50;;;;;;;11.82;100.00;100393.75;5202003;28;20431;-76
2023/12/21 05:49:04;;;;;;;15.38;3.10;;;;;;;11.74;100.00;100375.00;5205113;28;20017;-76
2023/12/21 05:51:34;;;;;;;23.88;4.70;;;;;;;11.91;100.00;100377.34;5202109;28;20022;-76
2023/12/21 05:54:05;;;;;;;40.25;16.38;;;;;;;11.91;100.00;100368.44;5204465;28;20018;-76
2023/12/21 05:56:36;;;;;;;27.52;11.85;;;;;;;11.83;100.00;100366.69;5204668;28;20025;-76
2023/12/21 05:59:06;;;;;;;39.50;18.90;;;;;;;11.90;100.00;100373.00;5201594;28;20021;-76
2023/12/21 06:01:38;;;;;;;23.08;11.75;;;;;;;11.87;100.00;100365.28;5201638;28;20067;-76
2023/12/21 06:04:09;;;;;;;39.25;17.45;;;;;;;11.84;100.00;100364.81;5203916;28;20461;-75
2023/12/21 06:06:40;;;;;;;31.63;18.55;;;;;;;11.84;100.00;100367.50;5202336;28;20116;-76
2023/12/21 06:09:10;;;;;;;44.47;21.67;;;;;;;11.85;100.00;100371.91;5210531;28;20017;-76
2023/12/21 06:11:41;;;;;;;30.95;13.13;;;;;;;12.01;100.00;100376.22;5202725;28;20033;-77
2023/12/21 06:14:11;;;;;;;25.67;7.72;;;;;;;12.02;100.00;100346.47;5184670;28;20029;-76
2023/12/21 06:16:42;;;;;;;28.02;9.60;;;;;;;12.02;100.00;100357.22;5202824;28;20029;-77
2023/12/21 06:19:14;;;;;;;27.48;8.32;;;;;;;12.09;100.00;100363.50;5205076;28;20117;-76
2023/12/21 06:21:45;;;;;;;25.45;6.40;;;;;;;12.15;100.00;100351.19;5204907;28;20063;-76
2023/12/21 06:24:15;;;;;;;17.38;5.45;;;;;;;12.21;100.00;100330.78;5202546;28;20380;-76
2023/12/21 06:26:46;;;;;;;41.85;13.15;;;;;;;12.15;100.00;100356.56;5203502;28;20036;-76
2023/12/21 06:29:16;;;;;;;18.45;6.53;;;;;;;12.12;100.00;100357.75;5202002;28;20037;-76
2023/12/21 06:31:47;;;;;;;22.35;5.88;;;;;;;12.18;100.00;100343.56;5203999;28;20021;-76
2023/12/21 06:34:17;;;;;;;14.93;3.28;;;;;;;12.09;100.00;100333.09;5205033;28;20458;-76
2023/12/21 06:36:48;;;;;;;11.65;2.65;;;;;;;12.09;100.00;100320.47;5204666;28;20022;-76
2023/12/21 06:39:18;;;;;;;11.75;2.60;;;;;;;12.12;100.00;100303.16;5205474;28;20055;-76
2023/12/21 06:41:49;;;;;;;14.23;2.50;;;;;;;12.06;100.00;100298.53;5221811;28;20385;-76
2023/12/21 06:44:19;;;;;;;14.55;2.40;;;;;;;12.12;100.00;100295.91;5207231;28;20025;-76
2023/12/21 06:46:51;;;;;;;16.42;2.85;;;;;;;12.17;100.00;100320.38;5208815;28;20025;-76
2023/12/21 06:49:22;;;;;;;10.98;2.30;;;;;;;12.11;100.00;100333.75;5207678;28;20033;-76
2023/12/21 06:51:52;;;;;;;41.08;18.67;;;;;;;12.02;100.00;100324.97;5211925;28;20063;-76
2023/12/21 06:54:23;;;;;;;33.35;26.52;;;;;;;12.01;100.00;100317.91;5211242;28;20017;-76
2023/12/21 06:56:53;;;;;;;14.98;8.68;;;;;;;12.03;100.00;100297.03;5206499;28;20021;-76
2023/12/21 06:59:24;;;;;;;15.20;6.80;;;;;;;11.92;100.00;100282.25;5202946;28;20060;-76
2023/12/21 07:01:54;;;;;;;16.05;3.10;;;;;;;12.02;100.00;100283.81;5208398;28;20029;-76
2023/12/21 07:04:25;;;;;;;17.27;3.35;;;;;;;12.05;100.00;100286.09;5206287;28;20021;-76
2023/12/21 07:06:56;;;;;;;7.57;2.20;;;;;;;12.01;100.00;100274.09;5209654;28;20033;-76
2023/12/21 07:09:26;;;;;;;14.85;3.47;;;;;;;12.08;100.00;100278.50;5206724;28;20017;-76
2023/12/21 07:11:57;;;;;;;16.60;2.97;;;;;;;12.08;100.00;100288.41;5207271;28;20423;-76
2023/12/21 07:14:27;;;;;;;10.13;2.03;;;;;;;12.01;100.00;100269.53;5205899;28;20072;-76
2023/12/21 07:16:58;;;;;;;7.38;2.83;;;;;;;12.10;100.00;100271.09;5207834;28;20075;-76
2023/12/21 07:19:28;;;;;;;7.68;2.05;;;;;;;12.12;100.00;100276.25;5206997;28;20022;-76
2023/12/21 07:21:59;;;;;;;15.90;2.72;;;;;;;12.06;100.00;100282.41;5205639;28;20021;-76
2023/12/21 07:24:29;;;;;;;12.68;2.20;;;;;;;12.14;100.00;100276.91;5208371;28;20021;-76
2023/12/21 07:27:00;;;;;;;9.30;1.90;;;;;;;12.09;100.00;100277.47;5209429;28;20025;-76
2023/12/21 07:29:31;;;;;;;10.35;2.08;;;;;;;12.23;100.00;100270.38;5206231;28;20100;-76
2023/12/21 07:32:01;;;;;;;8.10;1.98;;;;;;;12.19;100.00;100256.47;5207815;28;20102;-76
2023/12/21 07:34:32;;;;;;;14.18;1.92;;;;;;;12.19;100.00;100259.16;5206313;28;20397;-76
2023/12/21 07:37:03;;;;;;;23.55;10.82;;;;;;;12.20;100.00;100260.03;5207084;28;20021;-76
2023/12/21 07:39:33;;;;;;;12.10;2.75;;;;;;;12.24;100.00;100250.53;5207441;28;20037;-76
2023/12/21 07:42:04;;;;;;;10.93;6.43;;;;;;;12.23;100.00;100266.84;5209197;28;20031;-76
2023/12/21 07:44:35;;;;;;;30.58;5.35;;;;;;;12.22;100.00;100249.06;5208264;28;20484;-76
2023/12/21 07:47:06;;;;;;;8.18;3.65;;;;;;;12.30;100.00;100251.63;5207863;28;20477;-76
2023/12/21 07:49:36;;;;;;;17.58;3.45;;;;;;;12.13;100.00;100238.41;5205323;28;20068;-76
2023/12/21 07:52:07;;;;;;;10.00;3.75;;;;;;;12.03;100.00;100220.94;5208984;28;20017;-76
2023/12/21 07:54:37;;;;;;;12.35;3.08;;;;;;;12.10;100.00;100228.06;5205159;28;20072;-76
2023/12/21 07:57:09;;;;;;;30.83;10.18;;;;;;;12.12;100.00;100226.00;5203576;28;20028;-76
2023/12/21 07:59:40;;;;;;;39.83;14.68;;;;;;;12.07;100.00;100220.38;5208280;28;20029;-76
2023/12/21 08:02:10;;;;;;;39.03;15.43;;;;;;;11.95;100.00;100216.53;5205914;28;20036;-76
2023/12/21 08:04:41;;;;;;;46.75;17.63;;;;;;;11.96;100.00;100226.25;5207628;28;20057;-76
2023/12/21 08:07:11;;;;;;;61.85;24.00;;;;;;;11.84;100.00;100208.94;5206500;28;20018;-77
2023/12/21 08:09:42;;;;;;;45.53;17.17;;;;;;;11.83;100.00;100224.25;5208411;28;20384;-77
2023/12/21 08:12:14;;;;;;;62.97;22.67;;;;;;;11.78;100.00;100223.13;5205179;28;20109;-77
2023/12/21 08:14:44;;;;;;;38.78;15.60;;;;;;;11.64;100.00;100222.94;5193209;28;20072;-76
2023/12/21 08:17:17;;;;;;;64.18;23.67;;;;;;;11.62;100.00;100222.31;5206480;28;20017;-77
2023/12/21 08:19:47;;;;;;;43.08;17.80;;;;;;;11.59;100.00;100214.63;5207947;28;20439;-77
2023/12/21 08:22:18;;;;;;;22.38;11.27;;;;;;;11.58;100.00;100225.56;5207623;28;20024;-77
2023/12/21 08:24:51;;;;;;;12.07;3.15;;;;;;;11.57;100.00;100224.72;5207438;28;20392;-77
2023/12/21 08:27:21;;;;;;;11.20;2.53;;;;;;;11.54;100.00;100230.47;5205809;28;20028;-77
2023/12/21 08:29:52;;;;;;;11.18;2.40;;;;;;;11.54;100.00;100230.47;5204198;28;20488;-77
2023/12/21 08:32:22;;;;;;;9.35;2.25;;;;;;;11.51;100.00;100203.16;5205501;28;20017;-77
2023/12/21 08:34:53;;;;;;;10.23;2.55;;;;;;;11.59;100.00;100197.66;5205530;28;20021;-77
2023/12/21 08:37:23;;;;;;;9.98;2.15;;;;;;;11.51;100.00;100195.94;5204188;28;20029;-77
2023/12/21 08:39:54;;;;;;;12.90;2.50;;;;;;;11.46;100.00;100195.69;5204214;28;20546;-77
2023/12/21 08:42:26;;;;;;;12.13;2.22;;;;;;;11.46;100.00;100195.69;5208293;28;20108;-77
2023/12/21 08:44:59;;;;;;;13.48;2.10;;;;;;;11.43;100.00;100200.59;5206987;28;20710;-77
2023/12/21 08:47:32;;;;;;;10.40;2.45;;;;;;;11.41;100.00;100190.03;5205722;28;20022;-77
2023/12/21 08:50:04;;;;;;;9.63;2.05;;;;;;;11.46;100.00;100190.31;5207088;28;20033;-77
2023/12/21 08:52:36;;;;;;;7.50;2.30;;;;;;;11.48;100.00;100192.78;5204273;28;20036;-77
2023/12/21 08:55:08;;;;;;;14.85;2.65;;;;;;;11.56;100.00;100182.78;5203779;28;20033;-77
2023/12/21 08:57:39;;;;;;;11.73;2.33;;;;;;;11.61;100.00;100177.66;5203928;28;20366;-76
2023/12/21 09:00:16;;;;;;;12.85;2.28;;;;;;;11.66;100.00;100174.41;5205224;28;20029;-77
2023/12/21 09:02:46;;;;;;;26.20;14.02;;;;;;;11.70;100.00;100147.97;5206226;28;20044;-77
2023/12/21 09:05:17;;;;;;;7.95;3.53;;;;;;;11.76;100.00;100164.19;5205218;28;20029;-77
2023/12/21 09:07:48;;;;;;;8.38;2.08;;;;;;;11.84;100.00;100149.81;5207194;28;20100;-77
2023/12/21 09:10:18;;;;;;;11.63;4.93;;;;;;;11.92;100.00;100155.91;5203994;28;20018;-77
2023/12/21 09:12:49;;;;;;;17.15;9.55;;;;;;;12.01;100.00;100158.47;5206074;28;20485;-77
2023/12/21 09:15:19;;;;;;;15.32;7.00;;;;;;;12.08;100.00;100143.22;5208302;28;20512;-77
2023/12/21 09:17:50;;;;;;;11.90;3.33;;;;;;;12.16;100.00;100118.91;5204031;28;20548;-77
2023/12/21 09:20:20;;;;;;;8.77;2.50;;;;;;;12.16;100.00;100133.19;5205916;28;20021;-77
2023/12/21 09:22:51;;;;;;;11.88;4.18;;;;;;;12.31;100.00;100135.78;5208082;28;20019;-77
2023/12/21 09:25:21;;;;;;;7.22;3.30;;;;;;;12.35;100.00;100128.13;5207027;28;20033;-77
2023/12/21 09:27:53;;;;;;;10.05;3.75;;;;;;;12.39;100.00;100132.09;5219820;28;20154;-77
2023/12/21 09:30:26;;;;;;;24.15;13.27;;;;;;;12.52;100.00;100136.78;5205096;28;20028;-77
2023/12/21 09:33:00;;;;;;;13.57;9.90;;;;;;;12.61;100.00;100141.81;5176194;28;20036;-76
2023/12/21 09:35:31;;;;;;;30.98;24.55;;;;;;;12.59;100.00;100119.63;5206926;28;20112;-76
2023/12/21 09:38:02;;;;;;;12.02;9.52;;;;;;;12.49;100.00;100148.75;5204925;28;20151;-77
2023/12/21 09:40:34;;;;;;;11.07;4.35;;;;;;;12.56;100.00;100141.56;5205482;28;20036;-77
2023/12/21 09:43:08;;;;;;;10.98;2.10;;;;;;;12.59;100.00;100137.63;5206612;28;20151;-77
2023/12/21 09:45:41;;;;;;;6.20;2.20;;;;;;;12.60;100.00;100150.91;5206359;28;20393;-77
2023/12/21 09:48:15;;;;;;;3.28;1.30;;;;;;;12.67;100.00;100146.41;5206092;28;20033;-76
2023/12/21 09:50:49;;;;;;;4.47;1.90;;;;;;;12.77;100.00;100145.22;5205883;28;20021;-76
2023/12/21 09:53:22;;;;;;;10.75;3.70;;;;;;;12.79;100.00;100137.75;5205524;28;20021;-77
2023/12/21 09:55:53;;;;;;;7.97;1.55;;;;;;;12.81;100.00;100151.88;5206830;28;20066;-76
2023/12/21 09:58:24;;;;;;;6.43;1.30;;;;;;;12.79;100.00;100148.53;5205847;28;20442;-76
2023/12/21 10:00:55;;;;;;;11.23;1.50;;;;;;;12.90;100.00;100145.28;5223665;28;20087;-76
2023/12/21 10:03:25;;;;;;;3.33;1.10;;;;;;;12.86;100.00;100150.25;5206425;28;20017;-76
2023/12/21 10:05:56;;;;;;;4.93;1.70;;;;;;;13.04;100.00;100156.97;5207241;28;20032;-76
2023/12/21 10:08:27;;;;;;;5.72;1.30;;;;;;;13.11;100.00;100147.91;5204779;28;20032;-77
2023/12/21 10:10:58;;;;;;;7.90;1.30;;;;;;;13.29;100.00;100128.50;5211908;28;20392;-77
2023/12/21 10:13:28;;;;;;;5.43;1.40;;;;;;;13.10;100.00;100122.00;5210696;28;20033;-77
2023/12/21 10:15:59;;;;;;;6.22;1.30;;;;;;;13.21;100.00;100121.47;5211952;28;20033;-77
2023/12/21 10:18:30;;;;;;;3.13;1.38;;;;;;;13.17;100.00;100130.94;5208981;28;20013;-76
2023/12/21 10:21:02;;;;;;;5.22;1.10;;;;;;;13.18;100.00;100102.97;5212546;28;20025;-76
2023/12/21 10:23:33;;;;;;;4.28;2.10;;;;;;;13.26;100.00;100091.22;5204268;28;20018;-76
2023/12/21 10:26:05;;;;;;;8.65;3.58;;;;;;;13.30;100.00;100073.59;5211846;28;20032;-76
2023/12/21 10:28:35;;;;;;;26.65;24.10;;;;;;;13.37;100.00;100098.72;5207541;28;20032;-76
2023/12/21 10:31:08;;;;;;;13.98;11.95;;;;;;;13.45;100.00;100103.94;5209598;28;20472;-77
2023/12/21 10:33:41;;;;;;;8.23;2.15;;;;;;;13.45;100.00;100089.59;5210966;28;20021;-77
2023/12/21 10:36:13;;;;;;;19.50;17.70;;;;;;;13.48;100.00;100081.94;5210214;28;20082;-76
2023/12/21 10:38:44;;;;;;;10.40;3.45;;;;;;;13.39;100.00;100093.13;5209145;28;20396;-77
2023/12/21 10:41:15;;;;;;;5.82;3.15;;;;;;;13.45;100.00;100066.22;5207438;28;20042;-76
2023/12/21 10:43:45;;;;;;;12.38;6.55;;;;;;;13.44;100.00;100094.16;5209279;28;20018;-76
2023/12/21 10:46:17;;;;;;;5.75;2.22;;;;;;;13.43;100.00;100105.97;5209213;28;20028;-77
2023/12/21 10:48:48;;;;;;;10.90;2.95;;;;;;;13.46;100.00;100094.00;5211019;28;20060;-76
2023/12/21 10:51:19;;;;;;;7.72;1.60;;;;;;;13.43;100.00;100089.00;5211406;28;20396;-76
2023/12/21 10:53:50;;;;;;;3.53;1.70;;;;;;;13.33;100.00;100110.94;5208834;28;20021;-76
2023/12/21 10:56:23;;;;;;;2.90;1.70;;;;;;;13.32;100.00;100103.88;5209329;28;20025;-76
2023/12/21 10:58:55;;;;;;;7.53;2.50;;;;;;;13.37;100.00;100106.81;5212233;28;20041;-76
2023/12/21 11:01:28;;;;;;;5.78;1.10;;;;;;;13.28;100.00;100110.69;5206025;28;20204;-77
2023/12/21 11:04:00;;;;;;;5.80;1.70;;;;;;;13.27;100.00;100095.56;5211490;28;20017;-76
2023/12/21 11:06:33;;;;;;;3.85;1.35;;;;;;;13.07;100.00;100090.09;5210344;28;20100;-77
2023/12/21 11:09:06;;;;;;;8.15;1.48;;;;;;;12.80;100.00;100101.75;5208726;28;20049;-77
2023/12/21 11:11:38;;;;;;;8.05;2.05;;;;;;;12.77;100.00;100097.59;5209533;28;20035;-77
2023/12/21 11:14:09;;;;;;;6.88;3.58;;;;;;;12.54;100.00;100102.41;5211919;28;20420;-77
2023/12/21 11:16:50;;;;;;;8.80;4.40;;;;;;;12.42;100.00;100096.75;5207558;28;20504;-77
2023/12/21 11:19:30;;;;;;;6.38;3.08;;;;;;;12.34;100.00;100108.47;5208604;28;20022;-77
2023/12/21 11:22:03;;;;;;;10.10;5.00;;;;;;;12.29;100.00;100102.84;5209776;28;20035;-77
2023/12/21 11:24:34;;;;;;;11.77;3.95;;;;;;;12.36;100.00;100105.63;5203803;28;20036;-77
2023/12/21 11:27:06;;;;;;;11.38;6.38;;;;;;;12.13;100.00;100127.34;5210260;28;20029;-78